Haviland, Kansas
Current Conditions -  °F | °C
As of 12:55 PM on Friday 24 Oct 2014 (Local Time) from KPTT Reporting Station
Clear Clear  
Wind Chill: 75°   Ceiling: Unl
Heat Index: 75°   Visibility: 10mi
Dew Point: 61°   Wind: 8mph
Humidity: 61%   Direction: 220°SW
Pressure: 30.07"   Gusts: NA
Location:  37.62°N, 99.11°W
Report Text: KPTT 241755Z AUTO 22007KT 10SM CLR 24/16 A3007 RMK AO2
Loading
Personal Weather Stations






























Interactive Weather Map
Tropical Storm Tracking
New forecast layout! Learn more

10-Day Weather Forecast

Advertisements
Track Severe Weather on mobile